sensor_id;sensor_type;location;lat;lon;timestamp;pressure;altitude;pressure_sealevel;temperature;humidity
63009;BME280;49099;28.428;-16.488;2023-04-05T00:01:58;98513.94;;;19.32;56.28
63009;BME280;49099;28.428;-16.488;2023-04-05T00:04:26;98511.56;;;19.31;55.50
63009;BME280;49099;28.428;-16.488;2023-04-05T00:06:54;98501.91;;;19.30;56.04
63009;BME280;49099;28.428;-16.488;2023-04-05T00:09:23;98502.72;;;19.30;56.01
63009;BME280;49099;28.428;-16.488;2023-04-05T00:11:50;98495.72;;;19.29;55.65
63009;BME280;49099;28.428;-16.488;2023-04-05T00:14:17;98496.50;;;19.30;55.38
63009;BME280;49099;28.428;-16.488;2023-04-05T00:16:44;98501.44;;;19.28;54.96
63009;BME280;49099;28.428;-16.488;2023-04-05T00:19:11;98511.72;;;19.26;55.13
63009;BME280;49099;28.428;-16.488;2023-04-05T00:21:40;98512.03;;;19.33;55.09
63009;BME280;49099;28.428;-16.488;2023-04-05T00:24:08;98502.50;;;19.44;55.17
63009;BME280;49099;28.428;-16.488;2023-04-05T00:26:41;98513.75;;;19.46;54.83
63009;BME280;49099;28.428;-16.488;2023-04-05T00:29:09;98508.66;;;19.44;55.80
63009;BME280;49099;28.428;-16.488;2023-04-05T00:31:37;98518.34;;;19.37;56.12
63009;BME280;49099;28.428;-16.488;2023-04-05T00:34:04;98522.19;;;19.18;57.88
63009;BME280;49099;28.428;-16.488;2023-04-05T00:36:34;98532.00;;;19.14;58.08
63009;BME280;49099;28.428;-16.488;2023-04-05T00:39:02;98536.28;;;19.15;58.79
63009;BME280;49099;28.428;-16.488;2023-04-05T00:41:29;98531.50;;;19.12;60.68
63009;BME280;49099;28.428;-16.488;2023-04-05T00:43:56;98533.09;;;19.13;60.70
63009;BME280;49099;28.428;-16.488;2023-04-05T00:46:25;98537.22;;;19.11;61.71
63009;BME280;49099;28.428;-16.488;2023-04-05T00:48:53;98536.56;;;19.05;61.79
63009;BME280;49099;28.428;-16.488;2023-04-05T00:51:20;98521.56;;;19.04;62.42
63009;BME280;49099;28.428;-16.488;2023-04-05T00:53:50;98514.59;;;19.03;63.26
63009;BME280;49099;28.428;-16.488;2023-04-05T00:56:18;98507.19;;;19.00;62.99
63009;BME280;49099;28.428;-16.488;2023-04-05T00:58:47;98500.38;;;19.03;62.69
63009;BME280;49099;28.428;-16.488;2023-04-05T01:01:19;98503.53;;;18.96;61.77
63009;BME280;49099;28.428;-16.488;2023-04-05T01:03:52;98504.81;;;18.99;61.38
63009;BME280;49099;28.428;-16.488;2023-04-05T01:06:47;98510.81;;;19.04;61.03
63009;BME280;49099;28.428;-16.488;2023-04-05T01:12:17;98505.28;;;19.01;61.75
63009;BME280;49099;28.428;-16.488;2023-04-05T01:14:51;98500.53;;;18.98;61.81
63009;BME280;49099;28.428;-16.488;2023-04-05T01:17:20;98493.44;;;18.93;61.88
63009;BME280;49099;28.428;-16.488;2023-04-05T01:19:49;98497.06;;;18.88;60.59
63009;BME280;49099;28.428;-16.488;2023-04-05T01:25:33;98492.50;;;18.89;60.11
63009;BME280;49099;28.428;-16.488;2023-04-05T01:34:01;98489.59;;;19.11;60.62
63009;BME280;49099;28.428;-16.488;2023-04-05T01:36:48;98487.56;;;19.17;60.62
63009;BME280;49099;28.428;-16.488;2023-04-05T01:39:16;98482.31;;;19.20;60.16
63009;BME280;49099;28.428;-16.488;2023-04-05T01:41:45;98482.31;;;19.20;60.15
63009;BME280;49099;28.428;-16.488;2023-04-05T01:44:12;98473.47;;;19.11;60.57
63009;BME280;49099;28.428;-16.488;2023-04-05T01:46:39;98480.13;;;19.05;60.75
63009;BME280;49099;28.428;-16.488;2023-04-05T01:49:07;98472.88;;;18.97;59.49
63009;BME280;49099;28.428;-16.488;2023-04-05T01:51:34;98462.16;;;18.80;57.67
63009;BME280;49099;28.428;-16.488;2023-04-05T01:54:01;98459.63;;;18.75;57.73
63009;BME280;49099;28.428;-16.488;2023-04-05T01:56:28;98466.88;;;18.74;55.78
63009;BME280;49099;28.428;-16.488;2023-04-05T01:58:55;98462.47;;;18.78;56.03
63009;BME280;49099;28.428;-16.488;2023-04-05T02:01:22;98455.97;;;18.88;55.95
63009;BME280;49099;28.428;-16.488;2023-04-05T02:03:50;98456.75;;;18.97;55.63
63009;BME280;49099;28.428;-16.488;2023-04-05T02:06:18;98453.91;;;19.02;55.58
63009;BME280;49099;28.428;-16.488;2023-04-05T02:08:45;98445.38;;;19.00;54.53
63009;BME280;49099;28.428;-16.488;2023-04-05T02:11:13;98443.78;;;18.99;56.06
63009;BME280;49099;28.428;-16.488;2023-04-05T02:13:40;98443.78;;;18.99;56.10
63009;BME280;49099;28.428;-16.488;2023-04-05T02:16:07;98441.09;;;18.99;56.16
63009;BME280;49099;28.428;-16.488;2023-04-05T02:18:36;98426.06;;;18.98;56.49
63009;BME280;49099;28.428;-16.488;2023-04-05T02:21:06;98423.09;;;19.00;55.62
63009;BME280;49099;28.428;-16.488;2023-04-05T02:23:34;98414.72;;;18.92;54.90
63009;BME280;49099;28.428;-16.488;2023-04-05T02:26:01;98414.59;;;18.72;55.55
63009;BME280;49099;28.428;-16.488;2023-04-05T02:28:28;98413.63;;;18.59;56.04
63009;BME280;49099;28.428;-16.488;2023-04-05T02:30:55;98410.00;;;18.72;55.86
63009;BME280;49099;28.428;-16.488;2023-04-05T02:33:22;98403.03;;;18.80;56.15
63009;BME280;49099;28.428;-16.488;2023-04-05T02:35:51;98392.47;;;18.83;55.88
63009;BME280;49099;28.428;-16.488;2023-04-05T02:38:18;98390.03;;;18.90;55.04
63009;BME280;49099;28.428;-16.488;2023-04-05T02:40:47;98388.78;;;18.88;53.65
63009;BME280;49099;28.428;-16.488;2023-04-05T02:43:15;98390.06;;;18.82;53.70
63009;BME280;49099;28.428;-16.488;2023-04-05T02:45:42;98399.09;;;18.77;54.13
63009;BME280;49099;28.428;-16.488;2023-04-05T02:48:12;98406.66;;;18.75;54.03
63009;BME280;49099;28.428;-16.488;2023-04-05T02:50:39;98410.63;;;18.78;54.97
63009;BME280;49099;28.428;-16.488;2023-04-05T02:53:07;98416.63;;;18.92;55.24
63009;BME280;49099;28.428;-16.488;2023-04-05T02:55:34;98402.69;;;18.90;55.21
63009;BME280;49099;28.428;-16.488;2023-04-05T02:58:02;98405.06;;;18.83;56.98
63009;BME280;49099;28.428;-16.488;2023-04-05T03:00:29;98405.88;;;18.75;57.21
63009;BME280;49099;28.428;-16.488;2023-04-05T03:02:56;98404.16;;;18.61;57.73
63009;BME280;49099;28.428;-16.488;2023-04-05T03:05:24;98405.41;;;18.55;57.74
63009;BME280;49099;28.428;-16.488;2023-04-05T03:07:51;98402.28;;;18.45;58.33
63009;BME280;49099;28.428;-16.488;2023-04-05T03:10:20;98416.00;;;18.43;58.15
63009;BME280;49099;28.428;-16.488;2023-04-05T03:12:54;98416.19;;;18.38;58.59
63009;BME280;49099;28.428;-16.488;2023-04-05T03:15:21;98419.47;;;18.35;60.42
63009;BME280;49099;28.428;-16.488;2023-04-05T03:17:48;98418.53;;;18.31;60.33
63009;BME280;49099;28.428;-16.488;2023-04-05T03:20:16;98417.44;;;18.32;60.46
63009;BME280;49099;28.428;-16.488;2023-04-05T03:22:44;98413.31;;;18.43;60.64
63009;BME280;49099;28.428;-16.488;2023-04-05T03:25:12;98412.22;;;18.61;61.21
63009;BME280;49099;28.428;-16.488;2023-04-05T03:27:42;98407.19;;;18.69;60.78
63009;BME280;49099;28.428;-16.488;2023-04-05T03:30:09;98411.44;;;18.70;61.13
63009;BME280;49099;28.428;-16.488;2023-04-05T03:32:37;98417.94;;;18.69;61.71
63009;BME280;49099;28.428;-16.488;2023-04-05T03:35:04;98406.53;;;18.72;60.99
63009;BME280;49099;28.428;-16.488;2023-04-05T03:37:32;98398.47;;;18.72;60.07
63009;BME280;49099;28.428;-16.488;2023-04-05T03:39:59;98396.09;;;18.61;60.27
63009;BME280;49099;28.428;-16.488;2023-04-05T03:42:26;98395.44;;;18.64;60.10
63009;BME280;49099;28.428;-16.488;2023-04-05T03:44:53;98391.69;;;18.65;59.10
63009;BME280;49099;28.428;-16.488;2023-04-05T03:47:20;98388.03;;;18.61;59.05
63009;BME280;49099;28.428;-16.488;2023-04-05T03:49:48;98391.34;;;18.58;59.05
63009;BME280;49099;28.428;-16.488;2023-04-05T03:52:15;98388.38;;;18.60;58.43
63009;BME280;49099;28.428;-16.488;2023-04-05T03:54:42;98383.13;;;18.63;58.35
63009;BME280;49099;28.428;-16.488;2023-04-05T03:57:09;98386.31;;;18.48;58.89
63009;BME280;49099;28.428;-16.488;2023-04-05T03:59:36;98389.16;;;18.43;59.13
63009;BME280;49099;28.428;-16.488;2023-04-05T04:02:03;98385.84;;;18.46;58.63
63009;BME280;49099;28.428;-16.488;2023-04-05T04:04:30;98392.00;;;18.47;59.10
63009;BME280;49099;28.428;-16.488;2023-04-05T04:06:57;98379.03;;;18.57;58.87
63009;BME280;49099;28.428;-16.488;2023-04-05T04:09:25;98377.94;;;18.67;58.65
63009;BME280;49099;28.428;-16.488;2023-04-05T04:11:55;98376.19;;;18.62;58.40
63009;BME280;49099;28.428;-16.488;2023-04-05T04:14:25;98373.31;;;18.59;58.33
63009;BME280;49099;28.428;-16.488;2023-04-05T04:16:52;98367.34;;;18.53;58.33
63009;BME280;49099;28.428;-16.488;2023-04-05T04:19:19;98368.16;;;18.54;58.21
63009;BME280;49099;28.428;-16.488;2023-04-05T04:21:46;98351.84;;;18.59;58.36
63009;BME280;49099;28.428;-16.488;2023-04-05T04:24:17;98348.22;;;18.63;58.18
63009;BME280;49099;28.428;-16.488;2023-04-05T04:26:46;98344.91;;;18.67;57.77
63009;BME280;49099;28.428;-16.488;2023-04-05T04:29:13;98338.25;;;18.73;57.20
63009;BME280;49099;28.428;-16.488;2023-04-05T04:31:43;98332.59;;;18.65;56.93
63009;BME280;49099;28.428;-16.488;2023-04-05T04:34:15;98324.69;;;18.60;57.67
63009;BME280;49099;28.428;-16.488;2023-04-05T04:36:44;98327.84;;;18.62;57.91
63009;BME280;49099;28.428;-16.488;2023-04-05T04:39:13;98324.84;;;18.55;56.98
63009;BME280;49099;28.428;-16.488;2023-04-05T04:41:44;98332.72;;;18.52;57.29
63009;BME280;49099;28.428;-16.488;2023-04-05T04:44:12;98327.19;;;18.57;56.74
63009;BME280;49099;28.428;-16.488;2023-04-05T04:46:40;98328.63;;;18.63;54.88
63009;BME280;49099;28.428;-16.488;2023-04-05T04:49:10;98339.03;;;18.64;54.98
63009;BME280;49099;28.428;-16.488;2023-04-05T04:51:38;98327.66;;;18.76;54.82
63009;BME280;49099;28.428;-16.488;2023-04-05T04:54:06;98321.22;;;18.69;55.48
63009;BME280;49099;28.428;-16.488;2023-04-05T04:56:33;98335.09;;;18.71;56.34
63009;BME280;49099;28.428;-16.488;2023-04-05T04:59:00;98343.78;;;18.68;56.46
63009;BME280;49099;28.428;-16.488;2023-04-05T05:01:27;98346.19;;;18.69;56.43
63009;BME280;49099;28.428;-16.488;2023-04-05T05:03:54;98363.38;;;18.77;56.71
63009;BME280;49099;28.428;-16.488;2023-04-05T05:06:22;98359.72;;;18.81;57.24
63009;BME280;49099;28.428;-16.488;2023-04-05T05:08:49;98358.47;;;18.79;57.35
63009;BME280;49099;28.428;-16.488;2023-04-05T05:11:16;98359.59;;;18.78;57.03
63009;BME280;49099;28.428;-16.488;2023-04-05T05:13:43;98354.53;;;18.76;57.12
63009;BME280;49099;28.428;-16.488;2023-04-05T05:16:16;98356.09;;;18.77;57.61
63009;BME280;49099;28.428;-16.488;2023-04-05T05:18:43;98363.84;;;18.79;58.18
63009;BME280;49099;28.428;-16.488;2023-04-05T05:21:13;98358.47;;;18.79;58.45
63009;BME280;49099;28.428;-16.488;2023-04-05T05:23:41;98364.75;;;18.83;58.56
63009;BME280;49099;28.428;-16.488;2023-04-05T05:26:08;98375.66;;;18.95;58.52
63009;BME280;49099;28.428;-16.488;2023-04-05T05:28:35;98361.75;;;18.93;59.29
63009;BME280;49099;28.428;-16.488;2023-04-05T05:31:02;98369.34;;;18.91;59.29
63009;BME280;49099;28.428;-16.488;2023-04-05T05:33:30;98365.72;;;18.87;59.19
63009;BME280;49099;28.428;-16.488;2023-04-05T05:35:57;98366.19;;;18.89;59.32
63009;BME280;49099;28.428;-16.488;2023-04-05T05:38:24;98363.97;;;18.82;59.16
63009;BME280;49099;28.428;-16.488;2023-04-05T05:40:55;98361.94;;;18.79;59.02
63009;BME280;49099;28.428;-16.488;2023-04-05T05:43:23;98367.66;;;18.78;59.44
63009;BME280;49099;28.428;-16.488;2023-04-05T05:45:51;98375.84;;;18.81;59.49
63009;BME280;49099;28.428;-16.488;2023-04-05T05:48:18;98362.91;;;18.83;59.48
63009;BME280;49099;28.428;-16.488;2023-04-05T05:50:45;98374.72;;;18.82;59.69
63009;BME280;49099;28.428;-16.488;2023-04-05T05:53:14;98370.63;;;18.85;59.52
63009;BME280;49099;28.428;-16.488;2023-04-05T05:55:42;98363.03;;;18.87;59.15
63009;BME280;49099;28.428;-16.488;2023-04-05T05:58:09;98366.50;;;18.87;58.81
63009;BME280;49099;28.428;-16.488;2023-04-05T06:00:36;98366.66;;;18.91;58.71
63009;BME280;49099;28.428;-16.488;2023-04-05T06:03:05;98366.84;;;18.86;58.78
63009;BME280;49099;28.428;-16.488;2023-04-05T06:05:32;98375.84;;;18.81;58.77
63009;BME280;49099;28.428;-16.488;2023-04-05T06:07:59;98380.88;;;18.83;58.93
63009;BME280;49099;28.428;-16.488;2023-04-05T06:10:26;98372.66;;;18.88;58.75
63009;BME280;49099;28.428;-16.488;2023-04-05T06:12:53;98383.41;;;18.88;58.71
63009;BME280;49099;28.428;-16.488;2023-04-05T06:15:20;98388.78;;;18.88;59.09
63009;BME280;49099;28.428;-16.488;2023-04-05T06:17:47;98388.78;;;18.88;58.40
63009;BME280;49099;28.428;-16.488;2023-04-05T06:20:15;98390.38;;;18.89;57.79
63009;BME280;49099;28.428;-16.488;2023-04-05T06:22:42;98388.44;;;18.98;57.78
63009;BME280;49099;28.428;-16.488;2023-04-05T06:25:10;98376.41;;;19.04;58.58
63009;BME280;49099;28.428;-16.488;2023-04-05T06:27:38;98384.44;;;19.13;57.53
63009;BME280;49099;28.428;-16.488;2023-04-05T06:30:06;98390.78;;;19.08;57.37
63009;BME280;49099;28.428;-16.488;2023-04-05T06:32:33;98389.56;;;18.97;57.74
63009;BME280;49099;28.428;-16.488;2023-04-05T06:35:00;98396.34;;;19.03;57.57
63009;BME280;49099;28.428;-16.488;2023-04-05T06:37:29;98397.28;;;19.07;57.75
63009;BME280;49099;28.428;-16.488;2023-04-05T06:39:58;98401.06;;;19.06;57.58
63009;BME280;49099;28.428;-16.488;2023-04-05T06:42:25;98392.06;;;19.02;57.74
63009;BME280;49099;28.428;-16.488;2023-04-05T06:44:53;98397.44;;;19.02;58.21
63009;BME280;49099;28.428;-16.488;2023-04-05T06:47:20;98400.13;;;19.02;57.65
63009;BME280;49099;28.428;-16.488;2023-04-05T06:49:47;98395.53;;;19.03;55.97
63009;BME280;49099;28.428;-16.488;2023-04-05T06:52:15;98405.81;;;19.09;55.42
63009;BME280;49099;28.428;-16.488;2023-04-05T06:54:42;98405.34;;;19.07;56.54
63009;BME280;49099;28.428;-16.488;2023-04-05T06:57:09;98411.97;;;19.10;56.89
63009;BME280;49099;28.428;-16.488;2023-04-05T06:59:36;98416.84;;;19.16;56.68
63009;BME280;49099;28.428;-16.488;2023-04-05T07:02:03;98409.72;;;19.20;56.98
63009;BME280;49099;28.428;-16.488;2023-04-05T07:04:30;98409.91;;;19.15;57.11
63009;BME280;49099;28.428;-16.488;2023-04-05T07:07:03;98419.72;;;19.11;56.89
63009;BME280;49099;28.428;-16.488;2023-04-05T07:09:31;98414.50;;;19.06;56.97
63009;BME280;49099;28.428;-16.488;2023-04-05T07:11:59;98416.56;;;19.09;57.39
63009;BME280;49099;28.428;-16.488;2023-04-05T07:14:31;98421.28;;;19.12;57.08
63009;BME280;49099;28.428;-16.488;2023-04-05T07:16:59;98426.03;;;19.15;56.62
63009;BME280;49099;28.428;-16.488;2023-04-05T07:19:26;98418.56;;;19.21;56.66
63009;BME280;49099;28.428;-16.488;2023-04-05T07:21:55;98417.44;;;19.31;56.56
63009;BME280;49099;28.428;-16.488;2023-04-05T07:24:23;98418.66;;;19.42;55.75
63009;BME280;49099;28.428;-16.488;2023-04-05T07:26:50;98422.47;;;19.41;55.88
63009;BME280;49099;28.428;-16.488;2023-04-05T07:29:17;98420.09;;;19.39;55.85
63009;BME280;49099;28.428;-16.488;2023-04-05T07:31:44;98433.06;;;19.37;56.06
63009;BME280;49099;28.428;-16.488;2023-04-05T07:34:12;98439.41;;;19.33;56.33
63009;BME280;49099;28.428;-16.488;2023-04-05T07:36:39;98442.28;;;19.28;56.43
63009;BME280;49099;28.428;-16.488;2023-04-05T07:39:06;98432.53;;;19.14;56.35
63009;BME280;49099;28.428;-16.488;2023-04-05T07:41:33;98439.28;;;19.20;56.49
63009;BME280;49099;28.428;-16.488;2023-04-05T07:44:04;98443.09;;;19.19;56.32
63009;BME280;49099;28.428;-16.488;2023-04-05T07:46:31;98436.59;;;19.20;55.94
63009;BME280;49099;28.428;-16.488;2023-04-05T07:48:58;98437.72;;;19.19;56.23
63009;BME280;49099;28.428;-16.488;2023-04-05T07:51:25;98437.56;;;19.25;55.81
63009;BME280;49099;28.428;-16.488;2023-04-05T07:53:53;98440.53;;;19.32;55.78
63009;BME280;49099;28.428;-16.488;2023-04-05T07:56:20;98436.84;;;19.36;55.36
63009;BME280;49099;28.428;-16.488;2023-04-05T07:58:49;98448.59;;;19.32;54.76
63009;BME280;49099;28.428;-16.488;2023-04-05T08:01:17;98454.59;;;19.29;55.38
63009;BME280;49099;28.428;-16.488;2023-04-05T08:03:44;98465.81;;;19.39;55.24
63009;BME280;49099;28.428;-16.488;2023-04-05T08:06:15;98466.91;;;19.47;55.23
63009;BME280;49099;28.428;-16.488;2023-04-05T08:08:45;98461.97;;;19.49;55.02
63009;BME280;49099;28.428;-16.488;2023-04-05T08:11:13;98467.22;;;19.45;54.58
63009;BME280;49099;28.428;-16.488;2023-04-05T08:13:40;98467.22;;;19.37;54.36
63009;BME280;49099;28.428;-16.488;2023-04-05T08:16:08;98471.78;;;19.45;54.70
63009;BME280;49099;28.428;-16.488;2023-04-05T08:18:36;98470.50;;;19.51;54.62
63009;BME280;49099;28.428;-16.488;2023-04-05T08:21:04;98475.56;;;19.53;54.40
63009;BME280;49099;28.428;-16.488;2023-04-05T08:23:31;98484.63;;;19.48;54.74
63009;BME280;49099;28.428;-16.488;2023-04-05T08:25:58;98486.34;;;19.44;54.90
63009;BME280;49099;28.428;-16.488;2023-04-05T08:28:25;98498.41;;;19.38;55.06
63009;BME280;49099;28.428;-16.488;2023-04-05T08:30:53;98500.63;;;19.36;55.01
63009;BME280;49099;28.428;-16.488;2023-04-05T08:33:24;98499.69;;;19.32;54.75
63009;BME280;49099;28.428;-16.488;2023-04-05T08:35:56;98496.81;;;19.37;55.06
63009;BME280;49099;28.428;-16.488;2023-04-05T08:38:24;98503.16;;;19.41;54.91
63009;BME280;49099;28.428;-16.488;2023-04-05T08:40:52;98498.69;;;19.45;54.54
63009;BME280;49099;28.428;-16.488;2023-04-05T08:46:07;98492.19;;;19.63;54.73
63009;BME280;49099;28.428;-16.488;2023-04-05T08:48:35;98500.22;;;19.72;54.31
63009;BME280;49099;28.428;-16.488;2023-04-05T08:51:05;98489.41;;;19.81;53.34
63009;BME280;49099;28.428;-16.488;2023-04-05T08:53:34;98495.41;;;19.86;52.96
63009;BME280;49099;28.428;-16.488;2023-04-05T08:56:03;98501.91;;;19.85;52.29
63009;BME280;49099;28.428;-16.488;2023-04-05T08:58:31;98505.06;;;19.87;52.48
63009;BME280;49099;28.428;-16.488;2023-04-05T09:01:00;98505.66;;;19.93;53.69
63009;BME280;49099;28.428;-16.488;2023-04-05T09:03:35;98509.16;;;19.93;53.45
63009;BME280;49099;28.428;-16.488;2023-04-05T09:06:07;98507.41;;;19.89;53.14
63009;BME280;49099;28.428;-16.488;2023-04-05T09:08:37;98511.22;;;19.88;53.90
63009;BME280;49099;28.428;-16.488;2023-04-05T09:25:08;98507.56;;;20.43;52.39
63009;BME280;49099;28.428;-16.488;2023-04-05T09:27:53;98505.53;;;20.40;51.97
63009;BME280;49099;28.428;-16.488;2023-04-05T09:30:21;98509.31;;;20.39;51.97
63009;BME280;49099;28.428;-16.488;2023-04-05T09:32:53;98517.25;;;20.44;51.28
63009;BME280;49099;28.428;-16.488;2023-04-05T09:35:22;98518.19;;;20.48;50.85
63009;BME280;49099;28.428;-16.488;2023-04-05T09:38:00;98519.44;;;20.50;50.45
63009;BME280;49099;28.428;-16.488;2023-04-05T09:40:44;98518.31;;;20.51;50.22
63009;BME280;49099;28.428;-16.488;2023-04-05T09:43:58;98516.75;;;20.50;50.88
63009;BME280;49099;28.428;-16.488;2023-04-05T09:46:00;98531.44;;;20.53;51.53
63009;BME280;49099;28.428;-16.488;2023-04-05T09:51:17;98543.56;;;20.47;51.22
63009;BME280;49099;28.428;-16.488;2023-04-05T09:56:28;98539.34;;;20.58;50.76
63009;BME280;49099;28.428;-16.488;2023-04-05T09:59:09;98527.00;;;20.57;49.08
63009;BME280;49099;28.428;-16.488;2023-04-05T10:01:38;98526.59;;;20.67;49.48
63009;BME280;49099;28.428;-16.488;2023-04-05T10:04:09;98534.88;;;20.83;48.97
63009;BME280;49099;28.428;-16.488;2023-04-05T10:06:41;98536.78;;;20.82;48.50
63009;BME280;49099;28.428;-16.488;2023-04-05T10:09:10;98546.97;;;20.77;50.16
63009;BME280;49099;28.428;-16.488;2023-04-05T10:11:37;98552.44;;;20.68;51.07
63009;BME280;49099;28.428;-16.488;2023-04-05T10:14:06;98555.38;;;20.75;50.73
63009;BME280;49099;28.428;-16.488;2023-04-05T10:16:57;98551.50;;;20.85;50.11
63009;BME280;49099;28.428;-16.488;2023-04-05T10:25:06;98539.31;;;21.00;50.39
63009;BME280;49099;28.428;-16.488;2023-04-05T10:27:47;98549.22;;;20.96;51.16
63009;BME280;49099;28.428;-16.488;2023-04-05T10:30:17;98552.34;;;20.98;51.51
63009;BME280;49099;28.428;-16.488;2023-04-05T10:33:09;98557.03;;;20.89;52.27
63009;BME280;49099;28.428;-16.488;2023-04-05T10:39:00;98584.44;;;20.70;52.08
63009;BME280;49099;28.428;-16.488;2023-04-05T10:41:35;98577.34;;;20.65;52.97
63009;BME280;49099;28.428;-16.488;2023-04-05T10:44:08;98574.84;;;20.60;53.49
63009;BME280;49099;28.428;-16.488;2023-04-05T10:46:54;98569.19;;;20.74;53.97
63009;BME280;49099;28.428;-16.488;2023-04-05T10:49:31;98578.16;;;20.86;52.86
63009;BME280;49099;28.428;-16.488;2023-04-05T10:52:01;98571.03;;;20.82;53.01
63009;BME280;49099;28.428;-16.488;2023-04-05T10:54:33;98576.31;;;20.78;53.78
63009;BME280;49099;28.428;-16.488;2023-04-05T10:57:07;98576.09;;;20.83;53.74
63009;BME280;49099;28.428;-16.488;2023-04-05T10:59:41;98566.69;;;20.90;53.39
63009;BME280;49099;28.428;-16.488;2023-04-05T11:02:09;98571.22;;;20.98;53.46
63009;BME280;49099;28.428;-16.488;2023-04-05T11:04:38;98574.63;;;21.07;53.48
63009;BME280;49099;28.428;-16.488;2023-04-05T11:07:15;98566.66;;;21.31;52.92
63009;BME280;49099;28.428;-16.488;2023-04-05T11:09:59;98564.50;;;21.25;49.58
63009;BME280;49099;28.428;-16.488;2023-04-05T11:23:14;98576.00;;;21.13;51.22
63009;BME280;49099;28.428;-16.488;2023-04-05T11:25:46;98568.13;;;21.29;51.03
63009;BME280;49099;28.428;-16.488;2023-04-05T11:28:30;98578.38;;;21.35;51.18
63009;BME280;49099;28.428;-16.488;2023-04-05T11:31:14;98577.44;;;21.31;51.40
63009;BME280;49099;28.428;-16.488;2023-04-05T11:34:07;98580.63;;;21.33;51.38
63009;BME280;49099;28.428;-16.488;2023-04-05T11:36:42;98578.66;;;21.55;51.65
63009;BME280;49099;28.428;-16.488;2023-04-05T11:41:58;98576.44;;;21.69;51.87
63009;BME280;49099;28.428;-16.488;2023-04-05T11:44:48;98573.47;;;21.50;51.67
63009;BME280;49099;28.428;-16.488;2023-04-05T11:47:18;98579.53;;;21.47;52.04
63009;BME280;49099;28.428;-16.488;2023-04-05T11:49:49;98571.28;;;21.64;51.47
63009;BME280;49099;28.428;-16.488;2023-04-05T11:52:18;98561.41;;;21.80;50.99
63009;BME280;49099;28.428;-16.488;2023-04-05T11:54:46;98562.41;;;21.88;50.77
63009;BME280;49099;28.428;-16.488;2023-04-05T11:57:18;98562.84;;;21.78;51.39
63009;BME280;49099;28.428;-16.488;2023-04-05T11:59:49;98566.22;;;21.75;51.31
63009;BME280;49099;28.428;-16.488;2023-04-05T12:02:17;98573.53;;;21.86;51.20
63009;BME280;49099;28.428;-16.488;2023-04-05T12:04:52;98575.69;;;21.93;51.00
63009;BME280;49099;28.428;-16.488;2023-04-05T12:07:20;98587.25;;;21.93;50.82
63009;BME280;49099;28.428;-16.488;2023-04-05T12:10:08;98580.78;;;21.94;50.84
63009;BME280;49099;28.428;-16.488;2023-04-05T12:12:42;98575.91;;;22.00;50.90
63009;BME280;49099;28.428;-16.488;2023-04-05T12:15:11;98573.56;;;21.98;51.34
63009;BME280;49099;28.428;-16.488;2023-04-05T12:17:50;98564.31;;;22.00;51.22
63009;BME280;49099;28.428;-16.488;2023-04-05T12:20:20;98552.78;;;22.11;50.67
63009;BME280;49099;28.428;-16.488;2023-04-05T12:22:50;98553.09;;;22.10;50.58
63009;BME280;49099;28.428;-16.488;2023-04-05T12:25:18;98546.91;;;22.09;51.07
63009;BME280;49099;28.428;-16.488;2023-04-05T12:27:46;98545.78;;;22.22;50.27
63009;BME280;49099;28.428;-16.488;2023-04-05T12:30:17;98555.72;;;22.18;50.42
63009;BME280;49099;28.428;-16.488;2023-04-05T12:32:55;98556.44;;;22.07;51.43
63009;BME280;49099;28.428;-16.488;2023-04-05T12:35:32;98552.19;;;22.06;50.59
63009;BME280;49099;28.428;-16.488;2023-04-05T12:38:03;98561.66;;;22.12;50.31
63009;BME280;49099;28.428;-16.488;2023-04-05T12:40:36;98553.91;;;22.10;49.78
63009;BME280;49099;28.428;-16.488;2023-04-05T12:43:05;98567.41;;;22.10;50.07
63009;BME280;49099;28.428;-16.488;2023-04-05T12:45:33;98568.38;;;22.06;50.09
63009;BME280;49099;28.428;-16.488;2023-04-05T12:48:09;98573.78;;;22.06;51.18
63009;BME280;49099;28.428;-16.488;2023-04-05T12:50:44;98563.22;;;22.37;50.64
63009;BME280;49099;28.428;-16.488;2023-04-05T12:53:17;98562.19;;;22.54;50.46
63009;BME280;49099;28.428;-16.488;2023-04-05T12:55:52;98564.00;;;22.50;50.82
63009;BME280;49099;28.428;-16.488;2023-04-05T12:58:22;98563.56;;;22.36;49.27
63009;BME280;49099;28.428;-16.488;2023-04-05T13:00:58;98564.22;;;22.33;49.41
63009;BME280;49099;28.428;-16.488;2023-04-05T13:03:26;98562.50;;;22.65;49.04
63009;BME280;49099;28.428;-16.488;2023-04-05T13:05:53;98553.66;;;22.80;48.71
63009;BME280;49099;28.428;-16.488;2023-04-05T13:08:20;98545.91;;;22.78;49.27
63009;BME280;49099;28.428;-16.488;2023-04-05T13:10:49;98549.38;;;22.79;48.59
63009;BME280;49099;28.428;-16.488;2023-04-05T13:13:16;98551.78;;;22.68;48.28
63009;BME280;49099;28.428;-16.488;2023-04-05T13:15:44;98552.63;;;22.44;48.97
63009;BME280;49099;28.428;-16.488;2023-04-05T13:18:12;98545.66;;;22.43;49.51
63009;BME280;49099;28.428;-16.488;2023-04-05T13:20:44;98537.84;;;22.66;49.04
63009;BME280;49099;28.428;-16.488;2023-04-05T13:23:12;98542.91;;;22.56;49.21
63009;BME280;49099;28.428;-16.488;2023-04-05T13:25:40;98551.06;;;22.43;49.64
63009;BME280;49099;28.428;-16.488;2023-04-05T13:28:08;98547.00;;;22.37;49.84
63009;BME280;49099;28.428;-16.488;2023-04-05T13:30:36;98553.53;;;22.24;50.77
63009;BME280;49099;28.428;-16.488;2023-04-05T13:33:03;98548.59;;;22.26;50.62
63009;BME280;49099;28.428;-16.488;2023-04-05T13:35:31;98553.94;;;22.63;49.96
63009;BME280;49099;28.428;-16.488;2023-04-05T13:37:58;98550.81;;;22.48;49.62
63009;BME280;49099;28.428;-16.488;2023-04-05T13:40:30;98544.88;;;22.43;50.29
63009;BME280;49099;28.428;-16.488;2023-04-05T13:42:58;98546.91;;;22.34;50.93
63009;BME280;49099;28.428;-16.488;2023-04-05T13:45:25;98545.00;;;22.34;50.79
63009;BME280;49099;28.428;-16.488;2023-04-05T13:47:54;98557.03;;;22.37;53.78
63009;BME280;49099;28.428;-16.488;2023-04-05T13:50:21;98554.66;;;22.23;54.53